createdAt,value
2018-11-25T00:01:30.843Z,25.27
2018-11-25T00:03:59.216Z,32.70
2018-11-25T00:06:27.568Z,32.80
2018-11-25T00:08:55.923Z,35.33
2018-11-25T00:11:24.308Z,36.83
2018-11-25T00:13:52.674Z,35.63
2018-11-25T00:16:21.042Z,35.67
2018-11-25T00:18:49.396Z,36.40
2018-11-25T00:21:17.774Z,36.50
2018-11-25T00:23:46.179Z,36.30
2018-11-25T00:26:14.562Z,37.57
2018-11-25T00:28:42.935Z,37.67
2018-11-25T00:31:11.284Z,38.00
2018-11-25T00:33:39.630Z,36.73
2018-11-25T00:36:08.002Z,36.70
2018-11-25T00:38:36.401Z,34.23
2018-11-25T00:41:04.831Z,33.00
2018-11-25T00:43:33.239Z,32.93
2018-11-25T00:46:01.583Z,30.23
2018-11-25T00:48:29.987Z,29.70
2018-11-25T00:50:58.344Z,38.53
2018-11-25T00:53:26.720Z,40.70
2018-11-25T00:55:55.236Z,39.67
2018-11-25T00:58:23.593Z,41.70
2018-11-25T01:00:52.370Z,41.60
2018-11-25T01:03:20.734Z,40.63
2018-11-25T01:05:49.111Z,38.77
2018-11-25T01:08:17.481Z,39.57
2018-11-25T01:10:45.890Z,41.27
2018-11-25T01:13:14.269Z,39.97
2018-11-25T01:15:42.625Z,40.30
2018-11-25T01:18:10.984Z,37.40
2018-11-25T01:20:39.328Z,37.30
2018-11-25T01:23:08.052Z,36.97
2018-11-25T01:25:36.406Z,36.70
2018-11-25T01:28:04.822Z,33.57
2018-11-25T01:30:33.216Z,32.67
2018-11-25T01:33:01.580Z,31.23
2018-11-25T01:35:29.948Z,40.57
2018-11-25T01:37:58.309Z,41.67
2018-11-25T01:40:26.670Z,41.30
2018-11-25T01:42:55.018Z,40.93
2018-11-25T01:45:23.428Z,43.10
2018-11-25T01:47:51.794Z,41.73
2018-11-25T01:50:20.164Z,41.43
2018-11-25T01:52:48.636Z,40.40
2018-11-25T01:55:18.373Z,40.90
2018-11-25T01:57:47.095Z,39.90
2018-11-25T02:00:20.542Z,37.47
2018-11-25T02:02:49.111Z,38.87
2018-11-25T02:05:17.557Z,36.83
2018-11-25T02:07:45.921Z,34.23
2018-11-25T02:10:15.377Z,34.97
2018-11-25T02:12:43.807Z,32.77
2018-11-25T02:15:13.889Z,29.97
2018-11-25T02:17:42.256Z,27.87
2018-11-25T02:20:26.133Z,41.93
2018-11-25T02:22:55.466Z,39.03
2018-11-25T02:25:23.905Z,39.70
2018-11-25T02:27:52.313Z,38.17
2018-11-25T02:30:21.125Z,35.90
2018-11-25T02:32:49.507Z,37.23
2018-11-25T02:35:18.289Z,36.67
2018-11-25T02:37:47.022Z,35.70
2018-11-25T02:40:16.539Z,36.43
2018-11-25T02:42:45.656Z,37.10
2018-11-25T02:45:15.797Z,35.63
2018-11-25T02:47:44.223Z,35.00
2018-11-25T02:50:23.977Z,36.37
2018-11-25T02:52:53.133Z,34.80
2018-11-25T02:55:24.388Z,33.27
2018-11-25T02:57:52.800Z,32.50
2018-11-25T03:00:21.256Z,30.77
2018-11-25T03:02:49.734Z,28.13
2018-11-25T03:05:18.097Z,29.00
2018-11-25T03:07:46.497Z,38.27
2018-11-25T03:10:15.207Z,40.00
2018-11-25T03:12:43.568Z,38.40
2018-11-25T03:15:15.264Z,31.30
2018-11-25T03:17:44.006Z,29.60
2018-11-25T03:20:15.176Z,28.53
2018-11-25T03:22:43.610Z,28.03
2018-11-25T03:25:14.217Z,26.27
2018-11-25T03:27:42.964Z,26.77
2018-11-25T03:30:13.423Z,24.63
2018-11-25T03:32:42.268Z,27.10
2018-11-25T03:35:11.995Z,26.40
2018-11-25T03:37:40.689Z,26.13
2018-11-25T03:40:19.186Z,24.93
2018-11-25T03:42:48.288Z,25.17
2018-11-25T03:45:19.935Z,26.07
2018-11-25T03:47:48.678Z,24.47
2018-11-25T03:50:17.242Z,24.47
2018-11-25T03:52:46.045Z,22.70
2018-11-25T03:55:15.309Z,24.23
2018-11-25T03:57:43.710Z,24.13
2018-11-25T04:00:15.112Z,23.90
2018-11-25T04:02:43.846Z,21.53
2018-11-25T04:05:13.713Z,22.03
2018-11-25T04:07:42.130Z,22.23
2018-11-25T04:10:11.681Z,22.97
2018-11-25T04:12:40.220Z,22.33
2018-11-25T04:15:14.514Z,20.80
2018-11-25T04:17:42.896Z,21.67
2018-11-25T04:20:17.991Z,19.57
2018-11-25T04:22:46.356Z,21.77
2018-11-25T04:25:14.707Z,21.27
2018-11-25T04:27:43.098Z,20.13
2018-11-25T04:30:16.321Z,22.73
2018-11-25T04:32:45.520Z,20.37
2018-11-25T04:35:14.295Z,23.43
2018-11-25T04:37:42.993Z,25.43
2018-11-25T04:40:14.857Z,23.87
2018-11-25T04:42:43.577Z,25.43
2018-11-25T04:45:14.672Z,24.50
2018-11-25T04:47:43.867Z,23.97
2018-11-25T04:50:15.894Z,24.43
2018-11-25T04:52:44.519Z,22.73
2018-11-25T04:55:12.919Z,22.60
2018-11-25T04:57:41.307Z,24.57
2018-11-25T05:00:11.971Z,23.17
2018-11-25T05:02:40.933Z,23.17
2018-11-25T05:05:11.131Z,22.30
2018-11-25T05:07:39.562Z,21.37
2018-11-25T05:10:15.064Z,20.40
2018-11-25T05:12:44.125Z,19.23
2018-11-25T05:15:15.571Z,20.97
2018-11-25T05:17:43.967Z,16.73
2018-11-25T05:20:12.860Z,20.50
2018-11-25T05:22:41.238Z,19.40
2018-11-25T05:25:11.078Z,19.77
2018-11-25T05:27:39.457Z,19.80
2018-11-25T05:30:09.838Z,19.87
2018-11-25T05:32:39.167Z,18.43
2018-11-25T05:35:11.692Z,17.70
2018-11-25T05:37:40.806Z,18.03
2018-11-25T05:40:11.811Z,18.37
2018-11-25T05:42:40.587Z,18.90
2018-11-25T05:45:11.273Z,18.90
2018-11-25T05:47:39.717Z,19.17
2018-11-25T05:50:10.845Z,18.10
2018-11-25T05:52:39.274Z,19.17
2018-11-25T05:55:08.510Z,17.50
2018-11-25T05:57:36.941Z,18.80
2018-11-25T06:00:08.711Z,17.57
2018-11-25T06:02:37.083Z,18.03
2018-11-25T06:05:05.891Z,17.83
2018-11-25T06:07:34.242Z,18.33
2018-11-25T06:10:02.643Z,16.47
2018-11-25T06:12:31.022Z,15.27
2018-11-25T06:14:59.393Z,16.13
2018-11-25T06:17:27.750Z,18.60
2018-11-25T06:19:56.129Z,19.53
2018-11-25T06:22:24.520Z,20.40
2018-11-25T06:24:52.959Z,19.37
2018-11-25T06:27:22.177Z,21.20
2018-11-25T06:29:50.525Z,21.50
2018-11-25T06:32:18.910Z,20.37
2018-11-25T06:34:47.278Z,19.57
2018-11-25T06:37:15.698Z,20.17
2018-11-25T06:39:44.039Z,20.03
2018-11-25T06:42:12.441Z,19.03
2018-11-25T06:44:40.794Z,20.73
2018-11-25T06:47:09.492Z,19.43
2018-11-25T06:49:37.846Z,21.63
2018-11-25T06:52:07.410Z,19.57
2018-11-25T06:54:35.770Z,20.47
2018-11-25T06:57:04.135Z,19.20
2018-11-25T06:59:32.495Z,21.00
2018-11-25T07:02:00.997Z,20.67
2018-11-25T07:04:29.393Z,18.40
2018-11-25T07:06:57.747Z,19.67
2018-11-25T07:09:26.450Z,20.60
2018-11-25T07:11:54.828Z,21.30
2018-11-25T07:14:23.216Z,19.10
2018-11-25T07:16:51.635Z,20.40
2018-11-25T07:19:19.997Z,22.03
2018-11-25T07:21:48.341Z,19.47
2018-11-25T07:24:16.728Z,18.63
2018-11-25T07:26:45.097Z,21.50
2018-11-25T07:29:13.559Z,21.13
2018-11-25T07:31:42.044Z,20.17
2018-11-25T07:34:10.537Z,20.23
2018-11-25T07:36:38.918Z,22.60
2018-11-25T07:39:07.807Z,23.00
2018-11-25T07:41:36.272Z,21.23
2018-11-25T07:44:04.668Z,18.97
2018-11-25T07:46:33.075Z,21.27
2018-11-25T07:49:01.477Z,21.60
2018-11-25T07:51:29.854Z,22.30
2018-11-25T07:53:58.265Z,19.97
2018-11-25T07:56:26.638Z,23.23
2018-11-25T07:58:54.995Z,22.07
2018-11-25T08:01:24.431Z,22.37
2018-11-25T08:03:53.092Z,21.80
2018-11-25T08:06:21.473Z,22.07
2018-11-25T08:08:49.848Z,21.40
2018-11-25T08:11:18.216Z,23.53
2018-11-25T08:13:46.611Z,23.90
2018-11-25T08:16:15.338Z,22.90
2018-11-25T08:18:43.698Z,22.30
2018-11-25T08:21:12.088Z,23.63
2018-11-25T08:23:40.481Z,23.03
2018-11-25T08:26:08.918Z,22.67
2018-11-25T08:28:37.290Z,20.80
2018-11-25T08:31:05.782Z,21.73
2018-11-25T08:33:34.202Z,23.83
2018-11-25T08:36:02.593Z,22.17
2018-11-25T08:38:30.978Z,21.93
2018-11-25T08:40:59.345Z,23.23
2018-11-25T08:43:27.697Z,20.63
2018-11-25T08:45:56.085Z,22.47
2018-11-25T08:48:24.562Z,21.77
2018-11-25T08:50:52.910Z,23.33
2018-11-25T08:53:21.291Z,22.13
2018-11-25T08:55:49.717Z,23.60
2018-11-25T08:58:19.055Z,23.17
2018-11-25T09:00:48.461Z,21.77
2018-11-25T09:03:16.870Z,22.20
2018-11-25T09:05:45.265Z,22.63
2018-11-25T09:08:13.657Z,20.83
2018-11-25T09:10:42.098Z,20.63
2018-11-25T09:13:10.515Z,22.20
2018-11-25T09:15:38.918Z,20.60
2018-11-25T09:18:07.318Z,21.20
2018-11-25T09:20:35.704Z,22.17
2018-11-25T09:23:04.077Z,21.83
2018-11-25T09:25:32.824Z,21.80
2018-11-25T09:28:02.211Z,21.97
2018-11-25T09:30:31.607Z,21.67
2018-11-25T09:32:59.994Z,22.57
2018-11-25T09:35:28.387Z,22.27
2018-11-25T09:37:56.816Z,21.37
2018-11-25T09:40:26.637Z,20.93
2018-11-25T09:42:55.072Z,21.03
2018-11-25T09:45:23.798Z,21.80
2018-11-25T09:47:52.152Z,22.13
2018-11-25T09:50:21.564Z,21.43
2018-11-25T09:52:50.011Z,20.90
2018-11-25T09:55:21.494Z,20.43
2018-11-25T09:57:54.398Z,18.13
2018-11-25T10:00:29.529Z,18.97
2018-11-25T10:02:58.195Z,20.03
2018-11-25T10:05:26.701Z,20.47
2018-11-25T10:07:55.411Z,20.07
2018-11-25T10:10:24.501Z,19.37
2018-11-25T10:12:52.975Z,19.37
2018-11-25T10:15:23.421Z,19.20
2018-11-25T10:17:59.025Z,17.90
2018-11-25T10:20:21.385Z,18.90
2018-11-25T10:22:49.818Z,19.40
2018-11-25T10:25:18.296Z,20.23
2018-11-25T10:27:47.034Z,19.50
2018-11-25T10:30:20.868Z,19.37
2018-11-25T10:32:51.173Z,16.50
2018-11-25T10:35:19.589Z,18.47
2018-11-25T10:37:48.508Z,19.67
2018-11-25T10:40:18.904Z,19.73
2018-11-25T10:42:47.626Z,17.20
2018-11-25T10:45:17.517Z,19.87
2018-11-25T10:47:45.989Z,17.80
2018-11-25T10:50:15.429Z,19.63
2018-11-25T10:52:44.228Z,20.63
2018-11-25T10:55:13.642Z,19.87
2018-11-25T10:57:42.888Z,19.23
2018-11-25T11:00:20.792Z,17.73
2018-11-25T11:02:53.465Z,19.53
2018-11-25T11:05:27.225Z,20.30
2018-11-25T11:07:55.688Z,18.27
2018-11-25T11:10:24.054Z,19.17
2018-11-25T11:12:52.661Z,20.00
2018-11-25T11:15:21.040Z,19.80
2018-11-25T11:17:49.451Z,19.20
2018-11-25T11:20:17.799Z,20.20
2018-11-25T11:22:46.521Z,20.97
2018-11-25T11:25:15.250Z,18.20
2018-11-25T11:27:43.616Z,19.43
2018-11-25T11:30:12.413Z,20.07
2018-11-25T11:32:43.777Z,18.80
2018-11-25T11:35:12.180Z,18.47
2018-11-25T11:37:40.945Z,19.13
2018-11-25T11:40:10.702Z,17.87
2018-11-25T11:42:39.418Z,18.27
2018-11-25T11:45:11.457Z,16.63
2018-11-25T11:47:39.865Z,15.60
2018-11-25T11:50:12.403Z,15.13
2018-11-25T11:52:40.785Z,15.23
2018-11-25T11:55:10.367Z,16.23
2018-11-25T11:57:39.248Z,15.20
2018-11-25T12:01:43.667Z,15.17
2018-11-25T12:04:12.108Z,15.80
2018-11-25T12:06:40.519Z,13.83
2018-11-25T12:09:10.396Z,15.13
2018-11-25T12:11:38.831Z,14.23
2018-11-25T12:14:07.552Z,14.43
2018-11-25T12:16:35.902Z,15.93
2018-11-25T12:19:04.346Z,15.53
2018-11-25T12:21:32.749Z,15.23
2018-11-25T12:24:01.284Z,15.60
2018-11-25T12:26:29.714Z,17.67
2018-11-25T12:28:58.103Z,18.37
2018-11-25T12:31:26.484Z,15.53
2018-11-25T12:33:54.918Z,17.93
2018-11-25T12:36:23.272Z,17.33
2018-11-25T12:38:51.643Z,15.67
2018-11-25T12:41:20.030Z,14.83
2018-11-25T12:43:48.398Z,15.77
2018-11-25T12:46:16.808Z,12.77
2018-11-25T12:48:45.186Z,15.67
2018-11-25T12:51:13.547Z,15.70
2018-11-25T12:53:42.283Z,16.67
2018-11-25T12:56:10.661Z,15.63
2018-11-25T12:58:39.231Z,17.23
2018-11-25T13:01:07.588Z,12.93
2018-11-25T13:03:35.993Z,15.53
2018-11-25T13:06:04.785Z,16.53
2018-11-25T13:08:33.134Z,17.43
2018-11-25T13:12:30.747Z,17.20
2018-11-25T13:14:59.376Z,16.83
2018-11-25T13:17:27.756Z,17.67
2018-11-25T13:19:56.186Z,16.13
2018-11-25T13:22:24.568Z,17.80
2018-11-25T13:24:52.937Z,16.87
2018-11-25T13:27:21.323Z,18.00
2018-11-25T13:29:49.712Z,18.57
2018-11-25T13:32:18.078Z,19.10
2018-11-25T13:34:46.460Z,17.30
2018-11-25T13:37:14.826Z,19.53
2018-11-25T13:39:43.302Z,18.80
2018-11-25T13:42:16.228Z,20.20
2018-11-25T13:44:42.306Z,19.27
2018-11-25T13:47:11.446Z,19.90
2018-11-25T13:49:39.843Z,19.50
2018-11-25T13:52:08.742Z,20.40
2018-11-25T13:54:37.926Z,20.77
2018-11-25T13:57:07.766Z,20.47
2018-11-25T13:59:36.142Z,18.10
2018-11-25T14:02:04.548Z,21.03
2018-11-25T14:04:32.958Z,21.67
2018-11-25T14:07:01.356Z,20.73
2018-11-25T14:09:30.560Z,21.63
2018-11-25T14:11:58.956Z,22.30
2018-11-25T14:14:27.345Z,22.37
2018-11-25T14:16:55.745Z,22.87
2018-11-25T14:19:24.097Z,21.70
2018-11-25T14:21:52.493Z,23.17
2018-11-25T14:24:20.866Z,22.77
2018-11-25T14:26:54.335Z,21.83
2018-11-25T14:29:22.870Z,23.13
2018-11-25T14:31:51.391Z,24.20
2018-11-25T14:34:19.815Z,22.37
2018-11-25T14:36:48.215Z,23.30
2018-11-25T14:39:16.629Z,23.93
2018-11-25T14:41:45.011Z,23.07
2018-11-25T14:44:13.402Z,23.93
2018-11-25T14:46:41.791Z,24.90
2018-11-25T14:49:10.532Z,24.57
2018-11-25T14:51:38.970Z,23.50
2018-11-25T14:54:07.349Z,23.67
2018-11-25T14:56:35.697Z,24.73
2018-11-25T14:59:04.091Z,24.57
2018-11-25T15:01:32.525Z,22.97
2018-11-25T15:04:00.948Z,23.77
2018-11-25T15:06:29.745Z,23.50
2018-11-25T15:08:57.824Z,31.37
2018-11-25T15:11:26.214Z,28.97
2018-11-25T15:13:54.619Z,30.27
2018-11-25T15:16:22.977Z,31.23
2018-11-25T15:18:52.200Z,29.77
2018-11-25T15:21:20.594Z,29.43
2018-11-25T15:23:48.957Z,29.13
2018-11-25T15:26:18.394Z,30.37
2018-11-25T15:28:46.733Z,30.80
2018-11-25T15:31:15.115Z,29.07
2018-11-25T15:33:43.509Z,30.90
2018-11-25T15:36:11.990Z,29.27
2018-11-25T15:38:40.372Z,30.27
2018-11-25T15:41:08.766Z,30.17
2018-11-25T15:43:37.165Z,32.10
2018-11-25T15:46:05.637Z,31.33
2018-11-25T15:48:34.061Z,30.77
2018-11-25T15:51:02.422Z,30.43
2018-11-25T15:53:30.791Z,30.53
2018-11-25T15:56:01.600Z,28.37
2018-11-25T15:58:30.196Z,28.93
2018-11-25T16:00:58.728Z,28.07
2018-11-25T16:03:27.113Z,24.77
2018-11-25T16:06:01.257Z,24.93
2018-11-25T16:08:33.533Z,33.23
2018-11-25T16:10:58.167Z,33.67
2018-11-25T16:13:26.569Z,33.20
2018-11-25T16:15:54.962Z,32.13
2018-11-25T16:18:23.432Z,32.97
2018-11-25T16:20:51.862Z,31.37
2018-11-25T16:23:20.289Z,32.90
2018-11-25T16:25:50.863Z,31.13
2018-11-25T16:28:23.672Z,27.00
2018-11-25T16:30:52.038Z,34.60
2018-11-25T16:33:20.447Z,32.93
2018-11-25T16:35:49.200Z,34.83
2018-11-25T16:38:17.702Z,35.10
2018-11-25T16:40:46.113Z,36.23
2018-11-25T16:43:14.586Z,34.57
2018-11-25T16:45:43.037Z,24.87
2018-11-25T16:48:11.414Z,26.97
2018-11-25T16:50:39.806Z,27.23
2018-11-25T16:53:10.793Z,27.40
2018-11-25T16:55:39.263Z,30.00
2018-11-25T16:58:08.145Z,30.10
2018-11-25T17:00:36.566Z,26.93
2018-11-25T17:03:05.305Z,28.30
2018-11-25T17:05:36.503Z,28.67
2018-11-25T17:08:37.721Z,22.93
2018-11-25T17:11:06.914Z,24.87
2018-11-25T17:13:35.283Z,22.40
2018-11-25T17:16:03.695Z,23.13
2018-11-25T17:18:32.245Z,23.10
2018-11-25T17:21:00.691Z,23.40
2018-11-25T17:23:29.063Z,20.00
2018-11-25T17:25:57.457Z,23.70
2018-11-25T17:28:25.821Z,21.40
2018-11-25T17:30:54.160Z,19.20
2018-11-25T17:33:22.634Z,18.07
2018-11-25T17:35:51.049Z,19.77
2018-11-25T17:38:19.435Z,19.90
2018-11-25T17:40:47.827Z,19.50
2018-11-25T17:43:18.420Z,18.77
2018-11-25T17:45:46.790Z,20.90
2018-11-25T17:48:15.224Z,19.23
2018-11-25T17:50:43.576Z,20.60
2018-11-25T17:53:11.953Z,20.63
2018-11-25T17:55:40.407Z,20.93
2018-11-25T17:58:09.763Z,20.63
2018-11-25T18:00:44.622Z,21.27
2018-11-25T18:03:19.412Z,22.10
2018-11-25T18:05:47.799Z,20.90
2018-11-25T18:08:16.595Z,22.97
2018-11-25T18:10:44.970Z,23.27
2018-11-25T18:13:13.937Z,22.67
2018-11-25T18:15:42.356Z,25.67
2018-11-25T18:18:15.645Z,24.17
2018-11-25T18:20:49.170Z,24.60
2018-11-25T18:23:17.553Z,24.40
2018-11-25T18:26:17.116Z,23.60
2018-11-25T18:28:45.567Z,22.17
2018-11-25T18:31:14.091Z,24.30
2018-11-25T18:33:42.498Z,24.67
2018-11-25T18:36:13.140Z,24.23
2018-11-25T18:38:41.519Z,24.00
2018-11-25T18:41:09.869Z,24.83
2018-11-25T18:43:38.249Z,22.83
2018-11-25T18:46:06.970Z,24.60
2018-11-25T18:48:36.839Z,27.20
2018-11-25T18:51:05.409Z,19.50
2018-11-25T18:53:33.776Z,25.53
2018-11-25T18:56:02.213Z,25.33
2018-11-25T18:58:30.942Z,26.27
2018-11-25T19:01:10.008Z,22.03
2018-11-25T19:03:38.410Z,23.37
2018-11-25T19:06:06.805Z,21.47
2018-11-25T19:08:35.327Z,27.20
2018-11-25T19:11:03.790Z,28.67
2018-11-25T19:13:32.158Z,27.30
2018-11-25T19:16:00.528Z,25.90
2018-11-25T19:18:28.926Z,26.77
2018-11-25T19:20:57.321Z,26.83
2018-11-25T19:23:25.715Z,28.40
2018-11-25T19:25:55.846Z,28.00
2018-11-25T19:28:24.302Z,25.20
2018-11-25T19:30:52.657Z,27.53
2018-11-25T19:33:21.070Z,29.33
2018-11-25T19:35:49.453Z,28.37
2018-11-25T19:38:17.854Z,28.47
2018-11-25T19:40:46.281Z,20.57
2018-11-25T19:43:14.661Z,23.93
2018-11-25T19:45:43.118Z,29.93
2018-11-25T19:48:11.526Z,29.60
2018-11-25T19:50:39.953Z,29.77
2018-11-25T19:53:09.708Z,28.30
2018-11-25T19:55:38.347Z,29.17
2018-11-25T19:58:07.140Z,30.23
2018-11-25T20:00:35.671Z,32.20
2018-11-25T20:03:04.567Z,30.90
2018-11-25T20:05:32.993Z,29.07
2018-11-25T20:08:02.951Z,29.53
2018-11-25T20:10:30.427Z,30.37
2018-11-25T20:12:59.049Z,30.10
2018-11-25T20:15:27.460Z,29.27
2018-11-25T20:17:55.826Z,27.30
2018-11-25T20:20:26.183Z,21.83
2018-11-25T20:22:55.046Z,30.00
2018-11-25T20:25:23.820Z,30.90
2018-11-25T20:27:54.206Z,28.77
2018-11-25T20:30:26.795Z,28.57
2018-11-25T20:33:00.678Z,30.87
2018-11-25T20:35:29.398Z,31.00
2018-11-25T20:38:03.542Z,31.97
2018-11-25T20:40:32.608Z,30.93
2018-11-25T20:43:00.997Z,32.00
2018-11-25T20:45:39.056Z,29.20
2018-11-25T20:48:03.349Z,32.70
2018-11-25T20:50:31.800Z,31.67
2018-11-25T20:53:05.596Z,32.13
2018-11-25T20:55:34.004Z,31.70
2018-11-25T20:58:03.223Z,29.90
2018-11-25T21:00:31.843Z,29.73
2018-11-25T21:03:00.284Z,30.33
2018-11-25T21:05:28.917Z,29.80
2018-11-25T21:07:57.281Z,30.20
2018-11-25T21:10:26.261Z,25.00
2018-11-25T21:12:54.917Z,27.00
2018-11-25T21:15:23.297Z,31.00
2018-11-25T21:17:51.677Z,31.17
2018-11-25T21:20:21.457Z,30.17
2018-11-25T21:22:49.835Z,29.20
2018-11-25T21:25:19.670Z,33.03
2018-11-25T21:27:48.231Z,29.90
2018-11-25T21:30:18.111Z,28.50
2018-11-25T21:32:47.385Z,26.87
2018-11-25T21:35:15.731Z,28.30
2018-11-25T21:37:44.512Z,29.17
2018-11-25T21:40:20.640Z,37.83
2018-11-25T21:42:49.385Z,41.33
2018-11-25T21:45:18.744Z,41.43
2018-11-25T21:47:47.570Z,42.90
2018-11-25T21:50:18.111Z,42.30
2018-11-25T21:52:46.832Z,41.37
2018-11-25T21:55:17.084Z,43.03
2018-11-25T21:57:45.553Z,43.23
2018-11-25T22:00:16.174Z,43.17
2018-11-25T22:02:44.618Z,43.30
2018-11-25T22:05:13.776Z,43.47
2018-11-25T22:07:42.130Z,44.13
2018-11-25T22:10:11.750Z,42.97
2018-11-25T22:12:40.881Z,43.17
2018-11-25T22:15:14.199Z,41.67
2018-11-25T22:17:42.615Z,38.37
2018-11-25T22:20:11.810Z,39.70
2018-11-25T22:22:40.201Z,37.23
2018-11-25T22:25:12.987Z,40.17
2018-11-25T22:27:41.781Z,37.13
2018-11-25T22:30:19.801Z,38.50
2018-11-25T22:32:48.195Z,37.47
2018-11-25T22:35:17.697Z,35.53
2018-11-25T22:37:46.159Z,34.27
2018-11-25T22:40:15.955Z,30.10
2018-11-25T22:42:45.423Z,40.93
2018-11-25T22:45:16.829Z,41.57
2018-11-25T22:47:45.185Z,43.47
2018-11-25T22:50:15.688Z,40.73
2018-11-25T22:52:44.392Z,41.57
2018-11-25T22:55:15.194Z,40.77
2018-11-25T22:57:43.620Z,40.00
2018-11-25T23:00:20.735Z,40.17
2018-11-25T23:02:49.076Z,40.30
2018-11-25T23:05:28.926Z,38.77
2018-11-25T23:07:57.282Z,39.27
2018-11-25T23:10:25.696Z,38.27
2018-11-25T23:12:54.416Z,37.63
2018-11-25T23:15:22.792Z,36.40
2018-11-25T23:17:51.142Z,38.10
2018-11-25T23:20:19.525Z,36.00
2018-11-25T23:22:47.900Z,34.37
2018-11-25T23:25:16.275Z,36.87
2018-11-25T23:27:44.631Z,38.23
2018-11-25T23:30:13.015Z,37.47
2018-11-25T23:32:41.392Z,37.43
2018-11-25T23:35:15.424Z,37.60
2018-11-25T23:37:43.801Z,35.57
2018-11-25T23:40:12.167Z,34.63
2018-11-25T23:42:40.566Z,33.17
2018-11-25T23:45:11.222Z,31.97
2018-11-25T23:47:39.566Z,31.47
2018-11-25T23:50:09.593Z,29.57
2018-11-25T23:52:38.516Z,39.50
2018-11-25T23:55:09.547Z,39.43
2018-11-25T23:57:40.957Z,42.30
